Time;durP1;ratioP1;P1;durP2;ratioP2;P2;SDS_P1;SDS_P2;PMS_P1;PMS_P2;Temp;Humidity;BMP_temperature;BMP_pressure;BME280_temperature;BME280_humidity;BME280_pressure;Samples;Min_cycle;Max_cycle;Signal;HPM_P1;HPM_P2
2024/01/08 00:00:28;;;;;;;6.43;3.97;;;-2.70;99.90;;;;;;5031951;28;20050;-81
2024/01/08 00:02:53;;;;;;;5.75;4.43;;;-2.60;99.90;;;;;;5029840;28;20053;-81
2024/01/08 00:05:19;;;;;;;6.07;4.53;;;-2.70;99.90;;;;;;5029015;28;20107;-81
2024/01/08 00:07:44;;;;;;;6.40;4.15;;;-2.70;99.90;;;;;;5029910;28;20045;-81
2024/01/08 00:10:10;;;;;;;6.35;4.43;;;-2.70;99.90;;;;;;5024469;28;20045;-82
2024/01/08 00:12:36;;;;;;;5.80;4.28;;;-2.70;99.90;;;;;;5031378;28;20463;-81
2024/01/08 00:15:01;;;;;;;6.88;4.25;;;-2.70;99.90;;;;;;5029408;28;20045;-81
2024/01/08 00:17:27;;;;;;;8.45;4.35;;;-2.70;99.90;;;;;;5030467;28;20045;-81
2024/01/08 00:19:52;;;;;;;9.18;4.50;;;-2.70;99.90;;;;;;5035399;28;20320;-82
2024/01/08 00:22:18;;;;;;;5.47;4.25;;;-2.70;99.90;;;;;;5031059;28;20068;-81
2024/01/08 00:24:43;;;;;;;6.25;4.38;;;-2.70;99.90;;;;;;5030762;28;20148;-81
2024/01/08 00:27:09;;;;;;;6.38;4.10;;;-2.70;99.90;;;;;;5012704;28;20143;-81
2024/01/08 00:29:35;;;;;;;7.03;4.43;;;-2.70;99.90;;;;;;5013327;28;20095;-79
2024/01/08 00:32:00;;;;;;;7.45;4.18;;;-2.80;99.90;;;;;;5032699;28;20036;-79
2024/01/08 00:34:27;;;;;;;6.40;4.72;;;-2.70;99.90;;;;;;5032699;28;20049;-79
2024/01/08 00:36:53;;;;;;;5.25;4.22;;;-2.80;99.90;;;;;;5010456;28;20068;-79
2024/01/08 00:39:18;;;;;;;4.90;4.10;;;-2.80;99.90;;;;;;5029940;28;20053;-79
2024/01/08 00:41:44;;;;;;;8.80;4.90;;;-2.80;99.90;;;;;;5029144;28;20049;-79
2024/01/08 00:44:09;;;;;;;6.53;4.60;;;-2.80;99.90;;;;;;5029937;28;20097;-79
2024/01/08 00:46:35;;;;;;;7.00;4.57;;;-2.80;99.90;;;;;;5029205;28;20037;-79
2024/01/08 00:49:00;;;;;;;8.57;4.72;;;-2.80;99.90;;;;;;5029701;28;20041;-79
2024/01/08 00:51:26;;;;;;;7.40;4.22;;;-2.80;99.90;;;;;;5029587;28;20100;-79
2024/01/08 00:53:52;;;;;;;5.72;4.53;;;-2.80;99.90;;;;;;5025065;28;20111;-79
2024/01/08 00:56:18;;;;;;;7.20;4.32;;;-2.80;99.90;;;;;;5024142;28;20128;-78
2024/01/08 00:58:44;;;;;;;6.60;4.47;;;-2.80;99.90;;;;;;5030248;28;20084;-79
2024/01/08 01:01:11;;;;;;;8.15;4.50;;;-2.80;99.90;;;;;;5030018;28;20045;-78
2024/01/08 01:03:37;;;;;;;7.75;4.85;;;-2.80;99.90;;;;;;5029282;28;20077;-78
2024/01/08 01:06:03;;;;;;;7.18;4.80;;;-2.70;99.90;;;;;;5011878;28;20092;-80
2024/01/08 01:08:28;;;;;;;7.50;4.78;;;-2.80;99.90;;;;;;4988330;28;20041;-79
2024/01/08 01:10:54;;;;;;;5.43;4.43;;;-2.80;99.90;;;;;;5030201;28;20104;-79
2024/01/08 01:13:20;;;;;;;9.90;5.03;;;-2.80;99.90;;;;;;5011357;28;20052;-79
2024/01/08 01:15:45;;;;;;;8.30;5.22;;;-2.70;99.90;;;;;;5029860;28;20434;-79
2024/01/08 01:18:11;;;;;;;5.28;4.28;;;-2.70;99.90;;;;;;5027690;28;20061;-78
2024/01/08 01:20:37;;;;;;;9.20;5.32;;;-2.60;99.90;;;;;;5028787;28;20076;-79
2024/01/08 01:23:02;;;;;;;8.18;4.38;;;-2.60;99.90;;;;;;4994050;28;20418;-78
2024/01/08 01:25:28;;;;;;;8.95;4.93;;;-2.50;99.90;;;;;;5029091;28;20148;-79
2024/01/08 01:27:53;;;;;;;6.60;4.40;;;-2.50;99.90;;;;;;5011674;28;20045;-78
2024/01/08 01:30:19;;;;;;;7.10;5.43;;;-2.40;99.90;;;;;;5027584;28;20091;-80
2024/01/08 01:32:44;;;;;;;6.45;5.10;;;-2.40;99.90;;;;;;5009181;28;20046;-79
2024/01/08 01:35:10;;;;;;;7.47;5.20;;;-2.30;99.90;;;;;;5028652;28;20076;-78
2024/01/08 01:37:36;;;;;;;10.18;5.45;;;-2.30;99.90;;;;;;5025104;28;20085;-78
2024/01/08 01:40:02;;;;;;;8.88;5.20;;;-2.30;99.90;;;;;;5011227;28;20470;-79
2024/01/08 01:42:28;;;;;;;8.23;5.05;;;-2.30;99.90;;;;;;5028142;28;20401;-79
2024/01/08 01:44:54;;;;;;;7.15;4.60;;;-2.30;99.90;;;;;;5028123;28;20128;-79
2024/01/08 01:47:20;;;;;;;7.70;5.47;;;-2.20;99.90;;;;;;5018254;28;20050;-78
2024/01/08 01:49:46;;;;;;;8.23;4.82;;;-2.20;99.90;;;;;;5010736;28;20053;-78
2024/01/08 01:52:12;;;;;;;7.93;5.43;;;-2.20;99.90;;;;;;5028004;28;20049;-78
2024/01/08 01:54:39;;;;;;;8.07;5.22;;;-2.20;99.90;;;;;;5027720;28;20052;-79
2024/01/08 01:57:05;;;;;;;9.38;5.43;;;-2.10;99.90;;;;;;5005718;28;20095;-78
2024/01/08 01:59:33;;;;;;;6.22;4.43;;;-2.10;99.90;;;;;;5025428;28;20104;-79
2024/01/08 02:02:00;;;;;;;7.88;4.88;;;-2.10;99.90;;;;;;5027986;28;20046;-78
2024/01/08 02:04:29;;;;;;;7.55;5.35;;;-2.10;99.90;;;;;;5027983;28;20562;-79
2024/01/08 02:06:56;;;;;;;6.45;5.10;;;-2.00;99.90;;;;;;5009870;28;20056;-79
2024/01/08 02:09:23;;;;;;;9.57;5.15;;;-2.00;99.90;;;;;;5029312;28;20060;-79
2024/01/08 02:11:48;;;;;;;8.77;5.72;;;-2.00;99.90;;;;;;5011572;28;20049;-78
2024/01/08 02:14:15;;;;;;;7.05;4.65;;;-1.90;99.90;;;;;;4985834;28;20096;-78
2024/01/08 02:16:41;;;;;;;7.47;4.93;;;-1.90;99.90;;;;;;5010218;28;20176;-78
2024/01/08 02:19:08;;;;;;;8.95;5.20;;;-1.90;99.90;;;;;;5028025;28;20457;-79
2024/01/08 02:21:34;;;;;;;8.70;5.50;;;-1.80;99.90;;;;;;5027940;28;20046;-79
2024/01/08 02:24:00;;;;;;;11.52;5.38;;;-1.80;99.90;;;;;;5029345;28;20164;-79
2024/01/08 02:26:26;;;;;;;7.50;5.28;;;-1.80;99.90;;;;;;5009705;28;20348;-78
2024/01/08 02:28:52;;;;;;;9.18;5.63;;;-1.70;99.90;;;;;;5010030;28;20049;-79
2024/01/08 02:31:19;;;;;;;7.80;5.55;;;-1.70;99.90;;;;;;5028173;28;20041;-79
2024/01/08 02:33:45;;;;;;;8.93;6.30;;;-1.70;99.90;;;;;;5025774;28;20045;-80
2024/01/08 02:36:11;;;;;;;7.45;5.43;;;-1.70;99.90;;;;;;5030412;28;20051;-80
2024/01/08 02:38:36;;;;;;;8.95;5.20;;;-1.60;99.90;;;;;;5013589;28;20134;-80
2024/01/08 02:41:02;;;;;;;8.10;5.88;;;-1.60;99.90;;;;;;5016051;28;20360;-80
2024/01/08 02:43:28;;;;;;;8.88;6.10;;;-1.60;99.90;;;;;;5031605;28;20122;-79
2024/01/08 02:45:53;;;;;;;10.30;6.07;;;-1.60;99.90;;;;;;5014294;28;20128;-80
2024/01/08 02:48:19;;;;;;;8.95;5.75;;;-1.60;99.90;;;;;;5014486;28;20061;-79
2024/01/08 02:50:44;;;;;;;8.95;5.47;;;-1.60;99.90;;;;;;5032164;28;20048;-80
2024/01/08 02:53:12;;;;;;;8.55;5.72;;;-1.60;99.90;;;;;;5014110;28;20051;-80
2024/01/08 02:55:37;;;;;;;8.80;5.68;;;-1.60;99.90;;;;;;5014593;28;20038;-80
2024/01/08 02:58:04;;;;;;;7.25;5.03;;;-1.50;99.90;;;;;;5013703;28;20057;-80
2024/01/08 03:00:29;;;;;;;10.10;5.90;;;-1.50;99.90;;;;;;5009578;28;20053;-80
2024/01/08 03:02:55;;;;;;;9.52;5.78;;;-1.50;99.90;;;;;;5013062;28;20430;-80
2024/01/08 03:05:20;;;;;;;9.15;5.95;;;-1.50;99.90;;;;;;5032589;28;20045;-80
2024/01/08 03:07:46;;;;;;;10.15;5.43;;;-1.50;99.90;;;;;;5037816;28;20037;-81
2024/01/08 03:10:12;;;;;;;8.13;5.50;;;-1.40;99.90;;;;;;5014337;28;20049;-81
2024/01/08 03:12:37;;;;;;;8.30;5.60;;;-1.40;99.90;;;;;;5013669;28;20087;-80
2024/01/08 03:15:03;;;;;;;8.75;5.60;;;-1.40;99.90;;;;;;5012924;28;20419;-80
2024/01/08 03:17:29;;;;;;;10.02;5.35;;;-1.40;99.90;;;;;;5018926;28;20049;-80
2024/01/08 03:19:55;;;;;;;10.55;6.00;;;-1.40;99.90;;;;;;5014312;28;20045;-79
2024/01/08 03:22:20;;;;;;;8.48;5.95;;;-1.30;99.90;;;;;;5013001;28;20052;-80
2024/01/08 03:24:46;;;;;;;8.93;5.97;;;-1.30;99.90;;;;;;4997766;28;20045;-80
2024/01/08 03:27:12;;;;;;;11.68;6.00;;;-1.30;99.90;;;;;;5027310;28;20100;-79
2024/01/08 03:29:38;;;;;;;9.38;5.53;;;-1.30;99.90;;;;;;5019800;28;20461;-80
2024/01/08 03:32:04;;;;;;;12.25;5.95;;;-1.30;99.90;;;;;;5020726;28;20095;-81
2024/01/08 03:34:30;;;;;;;10.02;5.57;;;-1.20;99.90;;;;;;5013907;28;20076;-80
2024/01/08 03:36:55;;;;;;;11.23;6.75;;;-1.20;99.90;;;;;;5012905;28;20048;-80
2024/01/08 03:39:21;;;;;;;10.50;5.60;;;-1.20;99.90;;;;;;5013402;28;20124;-80
2024/01/08 03:41:46;;;;;;;9.20;6.30;;;-1.20;99.90;;;;;;5036114;28;20041;-79
2024/01/08 03:44:14;;;;;;;9.48;5.55;;;-1.20;99.90;;;;;;5038678;28;20046;-80
2024/01/08 03:46:39;;;;;;;8.63;5.78;;;-1.20;99.90;;;;;;5014947;28;20052;-80
2024/01/08 03:49:07;;;;;;;11.88;6.22;;;-1.20;99.90;;;;;;5029263;28;20041;-80
2024/01/08 03:51:32;;;;;;;9.70;5.70;;;-1.20;99.90;;;;;;5013989;28;20538;-80
2024/01/08 03:53:58;;;;;;;7.03;5.25;;;-1.20;99.90;;;;;;5028927;28;20057;-80
2024/01/08 03:56:23;;;;;;;9.80;5.05;;;-1.10;99.90;;;;;;5035579;28;20033;-80
2024/01/08 03:58:49;;;;;;;7.93;5.20;;;-1.10;99.90;;;;;;5029582;28;20136;-79
2024/01/08 04:01:15;;;;;;;7.40;5.30;;;-1.10;99.90;;;;;;5031130;28;20053;-80
2024/01/08 04:03:41;;;;;;;8.45;4.90;;;-1.10;99.90;;;;;;5012250;28;20037;-79
2024/01/08 04:06:06;;;;;;;8.40;5.28;;;-0.90;99.90;;;;;;5029084;28;20110;-79
2024/01/08 04:08:32;;;;;;;8.85;4.93;;;-1.10;99.90;;;;;;5032520;28;20041;-80
2024/01/08 04:10:58;;;;;;;6.55;4.75;;;-1.10;99.90;;;;;;5013180;28;20069;-79
2024/01/08 04:13:23;;;;;;;7.63;4.93;;;-1.10;99.90;;;;;;5011635;28;20126;-79
2024/01/08 04:15:49;;;;;;;7.70;4.90;;;-1.10;99.90;;;;;;5022601;28;20053;-79
2024/01/08 04:18:14;;;;;;;7.47;5.35;;;-1.10;99.90;;;;;;5022740;28;20049;-80
2024/01/08 04:20:40;;;;;;;8.05;4.85;;;-1.10;99.90;;;;;;5029690;28;20057;-80
2024/01/08 04:23:06;;;;;;;6.75;4.72;;;-1.10;99.90;;;;;;5030016;28;20582;-80
2024/01/08 04:25:31;;;;;;;9.00;5.38;;;-1.10;99.90;;;;;;5023262;28;20041;-80
2024/01/08 04:27:57;;;;;;;7.22;4.75;;;-1.10;99.90;;;;;;5030018;28;20329;-80
2024/01/08 04:30:23;;;;;;;8.13;4.45;;;-1.10;99.90;;;;;;5010669;28;20360;-80
2024/01/08 04:32:48;;;;;;;6.40;4.40;;;-1.10;99.90;;;;;;5036320;28;20092;-79
2024/01/08 04:35:14;;;;;;;7.35;4.78;;;-1.20;99.90;;;;;;5029433;28;20045;-81
2024/01/08 04:37:40;;;;;;;5.53;4.32;;;-1.20;99.90;;;;;;5011422;28;20577;-80
2024/01/08 04:40:07;;;;;;;5.43;3.95;;;-1.20;99.90;;;;;;5011831;28;20049;-80
2024/01/08 04:42:32;;;;;;;6.35;3.83;;;-1.20;99.90;;;;;;5011923;28;20733;-80
2024/01/08 04:44:58;;;;;;;6.20;3.88;;;-1.20;99.90;;;;;;5012218;28;20041;-79
2024/01/08 04:47:24;;;;;;;5.82;4.05;;;-1.20;99.90;;;;;;5027819;28;20442;-79
2024/01/08 04:49:49;;;;;;;5.85;4.38;;;-1.20;99.90;;;;;;5030594;28;20053;-80
2024/01/08 04:52:15;;;;;;;8.45;4.60;;;-1.20;99.90;;;;;;5029214;28;20038;-80
2024/01/08 04:54:42;;;;;;;5.70;3.90;;;-1.30;99.90;;;;;;5027115;28;20399;-79
2024/01/08 04:57:08;;;;;;;6.13;4.15;;;-1.30;99.90;;;;;;5028898;28;20107;-79
2024/01/08 04:59:41;;;;;;;7.38;4.53;;;-1.30;99.90;;;;;;5026753;28;20475;-79
2024/01/08 05:02:08;;;;;;;7.93;4.07;;;-1.30;99.90;;;;;;5020761;28;20065;-79
2024/01/08 05:04:33;;;;;;;5.15;3.70;;;-1.30;99.90;;;;;;4990984;28;20049;-79
2024/01/08 05:06:59;;;;;;;6.43;3.85;;;-1.30;99.90;;;;;;5028896;28;20094;-80
2024/01/08 05:09:25;;;;;;;10.23;4.30;;;-1.40;99.90;;;;;;5027448;28;20099;-79
2024/01/08 05:11:50;;;;;;;6.20;3.90;;;-1.40;99.90;;;;;;5034751;28;20052;-79
2024/01/08 05:14:16;;;;;;;5.47;3.80;;;-1.40;99.90;;;;;;5020202;28;20048;-79
2024/01/08 05:16:41;;;;;;;6.03;3.90;;;-1.40;99.90;;;;;;5008829;28;20126;-79
2024/01/08 05:19:07;;;;;;;5.13;3.50;;;-1.40;99.90;;;;;;5028767;28;20057;-79
2024/01/08 05:21:33;;;;;;;4.63;3.28;;;-1.50;99.90;;;;;;5029550;28;20123;-79
2024/01/08 05:23:58;;;;;;;4.65;3.38;;;-1.50;99.90;;;;;;5035964;28;20499;-79
2024/01/08 05:26:24;;;;;;;5.55;3.80;;;-1.50;99.90;;;;;;5028426;28;20091;-79
2024/01/08 05:28:49;;;;;;;5.00;3.30;;;-1.50;99.90;;;;;;5027348;28;20041;-79
2024/01/08 05:31:15;;;;;;;6.22;3.92;;;-1.50;99.90;;;;;;5029765;28;20068;-79
2024/01/08 05:33:41;;;;;;;4.38;3.35;;;-1.50;99.90;;;;;;5029154;28;20042;-80
2024/01/08 05:36:07;;;;;;;5.88;3.95;;;-1.50;99.90;;;;;;5029112;28;20041;-80
2024/01/08 05:38:32;;;;;;;7.30;3.30;;;-1.50;99.90;;;;;;5026791;28;20503;-80
2024/01/08 05:40:58;;;;;;;6.07;4.03;;;-1.50;99.90;;;;;;5028149;28;20151;-79
2024/01/08 05:43:23;;;;;;;5.78;4.13;;;-1.50;99.90;;;;;;4999150;28;20045;-80
2024/01/08 05:45:49;;;;;;;6.25;4.07;;;-1.50;99.90;;;;;;5035294;28;20049;-79
2024/01/08 05:48:15;;;;;;;6.53;3.60;;;-1.80;99.90;;;;;;5026115;28;20054;-79
2024/01/08 05:50:41;;;;;;;5.28;3.80;;;-1.60;99.90;;;;;;5028643;28;20041;-79
2024/01/08 05:53:06;;;;;;;6.63;3.88;;;-1.60;99.90;;;;;;5028209;28;20120;-79
2024/01/08 05:55:32;;;;;;;9.25;3.70;;;-1.60;99.90;;;;;;5028775;28;20045;-80
2024/01/08 05:57:57;;;;;;;6.28;3.75;;;-1.60;99.90;;;;;;5010584;28;20042;-80
2024/01/08 06:00:23;;;;;;;5.25;3.80;;;-1.60;99.90;;;;;;5028515;28;20057;-80
2024/01/08 06:02:48;;;;;;;5.55;3.90;;;-1.50;99.90;;;;;;5027752;28;20460;-80
2024/01/08 06:05:14;;;;;;;5.93;4.40;;;-1.50;99.90;;;;;;5012141;28;20056;-79
2024/01/08 06:07:40;;;;;;;6.53;4.40;;;-1.60;99.90;;;;;;5028718;28;20041;-80
2024/01/08 06:10:06;;;;;;;8.55;4.40;;;-1.60;99.90;;;;;;5010496;28;20052;-80
2024/01/08 06:12:31;;;;;;;6.25;3.92;;;-1.60;99.90;;;;;;5010600;28;20120;-80
2024/01/08 06:14:57;;;;;;;8.88;4.60;;;-1.60;99.90;;;;;;5013499;28;20050;-79
2024/01/08 06:17:24;;;;;;;8.05;4.68;;;-1.60;99.90;;;;;;5037255;28;20045;-79
2024/01/08 06:19:52;;;;;;;6.25;4.22;;;-1.60;99.90;;;;;;5011151;28;20056;-80
2024/01/08 06:22:18;;;;;;;6.35;4.30;;;-1.10;99.90;;;;;;5028053;28;20053;-79
2024/01/08 06:24:43;;;;;;;7.28;4.70;;;-1.60;99.90;;;;;;5027573;28;20765;-79
2024/01/08 06:27:09;;;;;;;9.40;5.07;;;-1.60;99.90;;;;;;5009796;28;20410;-80
2024/01/08 06:29:34;;;;;;;7.65;4.47;;;-1.60;99.90;;;;;;5027464;28;20041;-79
2024/01/08 06:32:00;;;;;;;7.80;4.82;;;-1.60;99.90;;;;;;5010225;28;20037;-80
2024/01/08 06:34:25;;;;;;;10.05;5.25;;;-1.60;99.90;;;;;;5027157;28;20045;-79
2024/01/08 06:36:51;;;;;;;7.07;5.00;;;-1.60;99.90;;;;;;4993881;28;20088;-80
2024/01/08 06:39:17;;;;;;;9.35;5.13;;;-1.70;99.90;;;;;;5027743;28;20782;-79
2024/01/08 06:41:43;;;;;;;8.95;4.88;;;-1.60;99.90;;;;;;5010701;28;20042;-80
2024/01/08 06:44:08;;;;;;;9.32;5.28;;;-1.60;99.90;;;;;;4994129;28;20112;-80
2024/01/08 06:46:34;;;;;;;8.50;4.90;;;-1.60;99.90;;;;;;5009484;28;20087;-80
2024/01/08 06:48:59;;;;;;;6.95;4.60;;;-1.60;99.90;;;;;;5010509;28;20045;-80
2024/01/08 06:51:25;;;;;;;7.57;4.05;;;-1.60;99.90;;;;;;5007679;28;20113;-80
2024/01/08 06:53:51;;;;;;;9.10;4.93;;;-1.60;99.90;;;;;;5028048;28;20495;-79
2024/01/08 06:56:16;;;;;;;7.28;4.32;;;-1.60;99.90;;;;;;5025166;28;20450;-80
2024/01/08 06:58:42;;;;;;;11.00;4.88;;;-1.60;99.90;;;;;;5026014;28;20054;-79
2024/01/08 07:01:07;;;;;;;8.38;4.80;;;-1.60;99.90;;;;;;5010247;28;20102;-81
2024/01/08 07:03:35;;;;;;;6.68;4.55;;;-1.60;99.90;;;;;;5011002;28;20478;-80
2024/01/08 07:06:01;;;;;;;7.18;4.47;;;-1.50;99.90;;;;;;5011097;28;20100;-80
2024/01/08 07:08:27;;;;;;;7.57;4.22;;;-1.50;99.90;;;;;;5028789;28;20053;-80
2024/01/08 07:10:52;;;;;;;7.53;4.70;;;-1.40;99.90;;;;;;5006926;28;20041;-80
2024/01/08 07:13:18;;;;;;;9.25;4.60;;;-1.40;99.90;;;;;;5026778;28;20056;-79
2024/01/08 07:15:46;;;;;;;7.15;4.80;;;-1.40;99.90;;;;;;5028510;28;20363;-80
2024/01/08 07:18:13;;;;;;;7.35;4.78;;;-1.50;99.90;;;;;;5028144;28;20042;-80
2024/01/08 07:20:39;;;;;;;7.55;4.43;;;-1.40;99.90;;;;;;5010582;28;20041;-79
2024/01/08 07:23:08;;;;;;;7.78;4.55;;;-1.40;99.90;;;;;;5033282;28;20060;-79
2024/01/08 07:25:40;;;;;;;8.82;4.50;;;-1.50;99.90;;;;;;5032142;28;20053;-79
2024/01/08 07:28:07;;;;;;;;;;;-1.40;99.90;;;;;;5024544;28;20077;-80
2024/01/08 07:30:33;;;;;;;7.85;4.20;;;-1.40;99.90;;;;;;5030632;28;19971;-80
2024/01/08 07:32:59;;;;;;;8.55;4.97;;;-1.40;99.90;;;;;;5014279;28;20463;-79
2024/01/08 07:35:25;;;;;;;5.95;4.20;;;-1.40;99.90;;;;;;5031782;28;20182;-80
2024/01/08 07:37:55;;;;;;;6.82;4.38;;;-1.40;99.90;;;;;;5030988;28;20042;-80
2024/01/08 07:40:24;;;;;;;6.72;4.20;;;-1.40;99.90;;;;;;5031186;28;20124;-79
2024/01/08 07:42:52;;;;;;;6.13;4.25;;;-1.40;99.90;;;;;;5013595;28;20045;-83
2024/01/08 07:45:18;;;;;;;7.60;4.85;;;-1.30;99.90;;;;;;5031247;28;20055;-80
2024/01/08 07:47:44;;;;;;;6.40;4.55;;;-1.40;99.90;;;;;;5031580;28;20049;-80
2024/01/08 07:50:09;;;;;;;7.68;4.28;;;-1.30;99.90;;;;;;5029462;28;20046;-82
2024/01/08 07:52:36;;;;;;;4.90;3.80;;;-1.30;99.90;;;;;;4996974;28;20049;-81
2024/01/08 07:55:05;;;;;;;7.07;4.53;;;-0.80;99.90;;;;;;5013611;28;20563;-80
2024/01/08 07:57:30;;;;;;;5.95;4.15;;;-1.20;99.90;;;;;;5031368;28;20049;-81
2024/01/08 07:59:57;;;;;;;5.45;4.05;;;-1.20;99.90;;;;;;5029526;28;20103;-80
2024/01/08 08:02:23;;;;;;;7.60;4.28;;;-1.20;99.90;;;;;;5030881;28;20364;-81
2024/01/08 08:04:50;;;;;;;6.90;4.20;;;-1.20;99.90;;;;;;5012369;28;20045;-80
2024/01/08 08:07:16;;;;;;;6.53;3.97;;;-1.20;99.90;;;;;;5012675;28;20111;-80
2024/01/08 08:09:41;;;;;;;6.10;3.83;;;-1.40;99.90;;;;;;5031264;28;20049;-81
2024/01/08 08:12:09;;;;;;;7.43;3.53;;;-1.10;99.90;;;;;;5030858;28;20057;-80
2024/01/08 08:14:36;;;;;;;9.07;5.53;;;-0.50;99.90;;;;;;5031096;28;20119;-81
2024/01/08 08:17:03;;;;;;;6.25;3.75;;;-1.10;99.90;;;;;;5029094;28;20049;-81
2024/01/08 08:19:29;;;;;;;6.13;3.92;;;-1.00;99.90;;;;;;5013414;28;20672;-81
2024/01/08 08:21:54;;;;;;;6.88;3.47;;;-1.00;99.90;;;;;;5012830;28;20125;-81
2024/01/08 08:24:20;;;;;;;6.32;3.72;;;-1.00;99.90;;;;;;5015892;28;20411;-81
2024/01/08 08:26:46;;;;;;;6.35;4.05;;;-1.00;99.90;;;;;;5030199;28;20495;-80
2024/01/08 08:29:12;;;;;;;8.88;4.10;;;-1.00;99.90;;;;;;5030677;28;20045;-81
2024/01/08 08:31:37;;;;;;;9.13;3.40;;;-0.90;99.90;;;;;;5030672;28;20130;-80
2024/01/08 08:34:03;;;;;;;4.85;3.10;;;-0.90;99.90;;;;;;5030186;28;20053;-80
2024/01/08 08:36:28;;;;;;;5.60;3.45;;;-0.90;99.90;;;;;;5011301;28;20048;-79
2024/01/08 08:38:54;;;;;;;7.43;3.53;;;-0.90;99.90;;;;;;5029564;28;20049;-81
2024/01/08 08:41:19;;;;;;;4.68;3.50;;;-0.90;99.90;;;;;;5028794;28;20053;-79
2024/01/08 08:43:46;;;;;;;6.40;3.50;;;-0.80;99.90;;;;;;5010543;28;20494;-80
2024/01/08 08:46:12;;;;;;;4.43;3.60;;;-0.80;99.90;;;;;;5010165;28;20041;-80
2024/01/08 08:48:38;;;;;;;6.38;3.50;;;-0.70;99.90;;;;;;5018821;28;20449;-79
2024/01/08 08:51:05;;;;;;;4.55;3.08;;;-0.80;99.90;;;;;;5049520;28;20533;-80
2024/01/08 08:53:30;;;;;;;5.78;3.63;;;-0.70;99.90;;;;;;5049322;28;20465;-80
2024/01/08 08:55:56;;;;;;;5.43;3.55;;;-0.70;99.90;;;;;;5049947;28;20061;-80
2024/01/08 08:58:23;;;;;;;6.47;3.65;;;-0.70;99.90;;;;;;5048498;28;20091;-79
2024/01/08 09:00:49;;;;;;;4.75;3.38;;;-0.70;99.90;;;;;;5048470;28;20106;-80
2024/01/08 09:03:15;;;;;;;6.22;3.55;;;-0.70;99.90;;;;;;5048256;28;20118;-80
2024/01/08 09:05:41;;;;;;;7.40;3.97;;;-0.70;99.90;;;;;;5049365;28;20049;-80
2024/01/08 09:08:07;;;;;;;7.63;3.80;;;-0.70;99.90;;;;;;5048794;28;20091;-79
2024/01/08 09:10:32;;;;;;;5.57;3.65;;;-0.70;99.90;;;;;;5049335;28;20057;-80
2024/01/08 09:12:58;;;;;;;5.90;4.00;;;-0.60;99.90;;;;;;5048388;28;20059;-80
2024/01/08 09:15:24;;;;;;;5.32;3.83;;;-0.60;99.90;;;;;;5047678;28;20037;-80
2024/01/08 09:17:49;;;;;;;5.50;3.13;;;-0.60;99.90;;;;;;5049482;28;20422;-80
2024/01/08 09:20:15;;;;;;;5.88;3.28;;;-0.60;99.90;;;;;;5049726;28;20045;-79
2024/01/08 09:22:41;;;;;;;6.60;3.38;;;-0.50;99.90;;;;;;5048785;28;20467;-79
2024/01/08 09:25:07;;;;;;;6.82;4.05;;;-0.50;99.90;;;;;;5047160;28;20057;-80
2024/01/08 09:27:33;;;;;;;6.07;3.67;;;-0.50;99.90;;;;;;5041062;28;20038;-80
2024/01/08 09:29:58;;;;;;;7.10;4.00;;;-0.50;99.90;;;;;;5029316;28;20033;-80
2024/01/08 09:32:25;;;;;;;7.88;4.00;;;-0.50;99.90;;;;;;5029378;28;20526;-80
2024/01/08 09:34:51;;;;;;;8.57;3.50;;;-0.50;99.90;;;;;;5031021;28;20128;-79
2024/01/08 09:37:17;;;;;;;5.72;3.78;;;-0.50;99.90;;;;;;5028940;28;20136;-80
2024/01/08 09:39:42;;;;;;;6.90;3.67;;;-0.50;99.90;;;;;;5029376;28;20049;-79
2024/01/08 09:42:11;;;;;;;6.72;3.75;;;-0.50;99.90;;;;;;5029504;28;20033;-80
2024/01/08 09:44:39;;;;;;;6.40;3.72;;;-0.40;99.90;;;;;;5028507;28;20167;-79
2024/01/08 09:47:06;;;;;;;5.78;3.78;;;-0.40;99.90;;;;;;5028650;28;20053;-79
2024/01/08 09:49:32;;;;;;;6.55;3.85;;;-0.40;99.90;;;;;;5006212;28;20045;-79
2024/01/08 09:52:01;;;;;;;5.57;3.10;;;-0.40;99.90;;;;;;5007786;28;20739;-79
2024/01/08 09:54:29;;;;;;;5.30;3.40;;;-0.40;99.90;;;;;;5029342;28;20049;-78
2024/01/08 09:56:58;;;;;;;3.80;3.38;;;-0.30;99.90;;;;;;5022258;28;20046;-80
2024/01/08 09:59:24;;;;;;;5.82;3.33;;;-0.30;99.90;;;;;;4988960;28;20517;-78
2024/01/08 10:01:50;;;;;;;5.65;3.72;;;-0.30;99.90;;;;;;5021844;28;20140;-77
2024/01/08 10:04:16;;;;;;;4.55;3.40;;;-0.30;99.90;;;;;;5027947;28;20481;-78
2024/01/08 10:06:44;;;;;;;4.45;2.90;;;-0.30;99.90;;;;;;5027783;28;20414;-79
2024/01/08 10:09:12;;;;;;;6.97;3.55;;;-0.30;99.90;;;;;;5027025;28;20045;-78
2024/01/08 10:11:39;;;;;;;3.78;2.97;;;-0.30;99.90;;;;;;5027748;28;20072;-77
2024/01/08 10:14:06;;;;;;;6.78;3.85;;;-0.20;99.90;;;;;;5024793;28;20095;-77
2024/01/08 10:16:32;;;;;;;4.25;3.15;;;-0.30;99.90;;;;;;4993868;28;20111;-77
2024/01/08 10:18:58;;;;;;;6.05;3.70;;;-0.30;99.90;;;;;;5026837;28;20053;-78
2024/01/08 10:21:25;;;;;;;6.95;3.28;;;-0.30;99.90;;;;;;5028061;28;20352;-79
2024/01/08 10:23:51;;;;;;;8.20;3.80;;;-0.30;99.90;;;;;;4992581;28;20140;-77
2024/01/08 10:26:17;;;;;;;5.82;3.45;;;-0.30;99.90;;;;;;5026272;28;20128;-78
2024/01/08 10:28:44;;;;;;;6.55;3.60;;;-0.30;99.90;;;;;;5008012;28;20042;-78
2024/01/08 10:31:10;;;;;;;7.50;3.63;;;-0.20;99.90;;;;;;5026712;28;20041;-78
2024/01/08 10:33:37;;;;;;;5.90;3.58;;;-0.20;99.90;;;;;;5010783;28;20079;-79
2024/01/08 10:36:04;;;;;;;6.20;3.80;;;-0.20;99.90;;;;;;5028912;28;20037;-80
2024/01/08 10:38:33;;;;;;;5.93;3.63;;;-0.10;99.90;;;;;;5024031;28;20045;-79
2024/01/08 10:41:03;;;;;;;6.55;3.58;;;-0.10;99.90;;;;;;5024578;28;20085;-79
2024/01/08 10:43:29;;;;;;;4.40;3.05;;;0.00;99.90;;;;;;5025383;28;20041;-80
2024/01/08 10:45:59;;;;;;;4.50;3.20;;;0.00;99.90;;;;;;5028210;28;20041;-79
2024/01/08 10:48:40;;;;;;;5.78;3.58;;;0.00;99.90;;;;;;5009765;28;20054;-79
2024/01/08 10:51:08;;;;;;;33.75;6.78;;;0.00;99.90;;;;;;5010992;28;20095;-79
2024/01/08 10:53:33;;;;;;;7.53;3.50;;;0.00;99.90;;;;;;5027161;28;20053;-78
2024/01/08 10:55:59;;;;;;;4.32;2.85;;;0.00;99.90;;;;;;5009899;28;20041;-80
2024/01/08 10:58:33;;;;;;;4.93;3.10;;;0.10;99.90;;;;;;5027951;28;20072;-79
2024/01/08 11:01:00;;;;;;;4.20;3.03;;;0.10;99.90;;;;;;5030572;28;20151;-79
2024/01/08 11:03:27;;;;;;;4.85;3.40;;;0.10;99.90;;;;;;5032302;28;20123;-80
2024/01/08 11:05:54;;;;;;;5.93;3.17;;;0.10;99.90;;;;;;5027339;28;20073;-80
2024/01/08 11:08:21;;;;;;;3.78;3.00;;;0.10;99.90;;;;;;5028004;28;20525;-79
2024/01/08 11:10:47;;;;;;;7.90;3.50;;;0.10;99.90;;;;;;5029281;28;20144;-79
2024/01/08 11:13:14;;;;;;;5.82;3.17;;;0.10;99.90;;;;;;5008081;28;20496;-79
2024/01/08 11:15:44;;;;;;;5.32;3.15;;;0.10;99.90;;;;;;5026946;28;20040;-79
2024/01/08 11:18:24;;;;;;;3.63;2.88;;;0.10;99.90;;;;;;5030704;28;20495;-79
2024/01/08 11:20:50;;;;;;;5.72;4.30;;;0.10;99.90;;;;;;5032736;28;20076;-79
2024/01/08 11:23:35;;;;;;;5.43;3.35;;;0.10;99.90;;;;;;5029439;28;20505;-78
2024/01/08 11:26:21;;;;;;;4.28;3.00;;;0.10;99.90;;;;;;5007543;28;20063;-79
2024/01/08 11:29:15;;;;;;;4.18;3.30;;;0.10;99.90;;;;;;5026175;28;20060;-79
2024/01/08 11:31:50;;;;;;;6.10;3.92;;;0.20;99.90;;;;;;5021711;28;20056;-79
2024/01/08 11:34:31;;;;;;;4.63;3.47;;;0.30;99.90;;;;;;5028883;28;20053;-79
2024/01/08 11:37:24;;;;;;;4.88;3.10;;;0.40;99.90;;;;;;5010362;28;20079;-79
2024/01/08 11:39:50;;;;;;;4.03;3.00;;;0.40;99.90;;;;;;5010027;28;21579;-79
2024/01/08 11:42:18;;;;;;;4.20;3.22;;;0.40;99.90;;;;;;4991904;28;20057;-79
2024/01/08 11:44:44;;;;;;;5.47;3.13;;;0.40;99.90;;;;;;5012065;28;20053;-79
2024/01/08 11:47:10;;;;;;;6.10;3.28;;;0.40;99.90;;;;;;5029152;28;20049;-78
2024/01/08 11:49:35;;;;;;;6.45;3.45;;;0.30;99.90;;;;;;5031212;28;20087;-79
2024/01/08 11:52:01;;;;;;;5.53;3.30;;;0.20;99.90;;;;;;5011348;28;20056;-79
2024/01/08 11:54:27;;;;;;;3.63;3.17;;;0.10;99.90;;;;;;5028131;28;20072;-79
2024/01/08 11:56:53;;;;;;;4.60;3.50;;;0.00;99.90;;;;;;5023430;28;20053;-79
2024/01/08 11:59:36;;;;;;;4.07;3.20;;;0.00;99.90;;;;;;5021852;28;20099;-79
2024/01/08 12:02:15;;;;;;;6.03;2.92;;;-0.10;99.90;;;;;;5011026;28;20088;-79
2024/01/08 12:04:41;;;;;;;7.70;3.67;;;-0.10;99.90;;;;;;5029893;28;20049;-80
2024/01/08 12:07:12;;;;;;;5.53;3.53;;;0.00;99.90;;;;;;5008866;28;20136;-81
2024/01/08 12:09:38;;;;;;;5.68;3.40;;;0.10;99.90;;;;;;5029493;28;20067;-78
2024/01/08 12:12:08;;;;;;;4.38;3.33;;;0.20;99.90;;;;;;5010767;28;20128;-80
2024/01/08 12:14:35;;;;;;;5.57;3.38;;;0.30;99.90;;;;;;5027668;28;20092;-80
2024/01/08 12:17:03;;;;;;;5.13;4.05;;;0.40;99.90;;;;;;5030286;28;20124;-80
2024/01/08 12:19:40;;;;;;;6.18;4.13;;;0.50;99.90;;;;;;5029565;28;20049;-79
2024/01/08 12:22:06;;;;;;;7.00;3.28;;;0.70;99.90;;;;;;5010025;28;20077;-79
2024/01/08 12:24:35;;;;;;;6.78;3.63;;;0.70;99.90;;;;;;5028861;28;20131;-79
2024/01/08 12:27:06;;;;;;;6.07;3.65;;;0.90;99.90;;;;;;5032274;28;20049;-79
2024/01/08 12:29:36;;;;;;;4.55;3.72;;;1.10;99.90;;;;;;5028586;28;20047;-80
2024/01/08 12:32:03;;;;;;;4.40;3.65;;;1.10;99.90;;;;;;5011032;28;20052;-81
2024/01/08 12:34:32;;;;;;;4.90;3.65;;;1.10;99.90;;;;;;5008050;28;20114;-80
2024/01/08 12:36:59;;;;;;;4.35;3.70;;;1.10;99.90;;;;;;5024706;28;20667;-80
2024/01/08 12:39:30;;;;;;;6.22;3.80;;;1.00;99.90;;;;;;5029552;28;20420;-79
2024/01/08 12:41:58;;;;;;;9.50;3.95;;;1.00;99.90;;;;;;5029963;28;20156;-81
2024/01/08 12:44:31;;;;;;;5.28;3.80;;;1.10;99.90;;;;;;5011381;28;20041;-81